createdAt,value
2023-02-09T00:00:13.320Z,1008.17
2023-02-09T00:01:13.289Z,1008.18
2023-02-09T00:02:13.409Z,1008.18
2023-02-09T00:03:13.295Z,1008.17
2023-02-09T00:04:13.284Z,1008.15
2023-02-09T00:05:13.295Z,1008.11
2023-02-09T00:06:13.220Z,1008.09
2023-02-09T00:07:13.241Z,1008.19
2023-02-09T00:08:13.244Z,1008.07
2023-02-09T00:09:13.211Z,1008.05
2023-02-09T00:10:13.241Z,1008.10
2023-02-09T00:11:13.215Z,1008.04
2023-02-09T00:12:13.178Z,1008.06
2023-02-09T00:13:13.186Z,1008.08
2023-02-09T00:14:13.192Z,1008.06
2023-02-09T00:15:13.183Z,1008.04
2023-02-09T00:16:13.202Z,1008.03
2023-02-09T00:17:13.137Z,1008.04
2023-02-09T00:18:13.162Z,1008.03
2023-02-09T00:19:13.099Z,1008.06
2023-02-09T00:20:13.125Z,1008.05
2023-02-09T00:21:13.110Z,1008.03
2023-02-09T00:22:13.143Z,1007.95
2023-02-09T00:23:13.075Z,1007.95
2023-02-09T00:24:13.091Z,1008.00
2023-02-09T00:25:13.081Z,1007.99
2023-02-09T00:26:13.041Z,1008.02
2023-02-09T00:27:13.056Z,1007.98
2023-02-09T00:28:13.092Z,1007.93
2023-02-09T00:29:13.025Z,1007.94
2023-02-09T00:30:12.991Z,1007.92
2023-02-09T00:31:46.735Z,1007.95
2023-02-09T00:32:13.055Z,1007.98
2023-02-09T00:33:12.986Z,1008.02
2023-02-09T00:34:12.975Z,1007.93
2023-02-09T00:35:12.959Z,1007.96
2023-02-09T00:36:12.963Z,1007.94
2023-02-09T00:37:12.935Z,1007.94
2023-02-09T00:38:12.933Z,1007.95
2023-02-09T00:39:12.916Z,1007.98
2023-02-09T00:40:12.905Z,1007.91
2023-02-09T00:41:12.898Z,1007.91
2023-02-09T00:42:12.902Z,1007.91
2023-02-09T00:43:12.884Z,1007.96
2023-02-09T00:44:12.885Z,1007.88
2023-02-09T00:45:12.852Z,1007.93
2023-02-09T00:46:12.894Z,1007.84
2023-02-09T00:47:12.849Z,1007.88
2023-02-09T00:48:12.818Z,1007.82
2023-02-09T00:49:12.828Z,1007.86
2023-02-09T00:50:12.814Z,1007.81
2023-02-09T00:51:12.796Z,1007.84
2023-02-09T00:52:12.782Z,1007.81
2023-02-09T00:53:12.792Z,1007.82
2023-02-09T00:54:12.771Z,1007.83
2023-02-09T00:55:12.761Z,1007.88
2023-02-09T00:56:12.755Z,1007.79
2023-02-09T00:57:12.758Z,1007.75
2023-02-09T00:58:12.724Z,1007.75
2023-02-09T00:59:12.733Z,1007.79
2023-02-09T01:00:12.722Z,1007.73
2023-02-09T01:01:12.726Z,1007.71
2023-02-09T01:02:12.704Z,1007.78
2023-02-09T01:03:12.658Z,1007.67
2023-02-09T01:04:13.693Z,1007.74
2023-02-09T01:05:12.674Z,1007.76
2023-02-09T01:06:12.645Z,1007.78
2023-02-09T01:07:12.631Z,1007.72
2023-02-09T01:08:12.628Z,1007.76
2023-02-09T01:09:12.619Z,1007.80
2023-02-09T01:10:12.606Z,1007.78
2023-02-09T01:11:12.602Z,1007.76
2023-02-09T01:12:12.573Z,1007.77
2023-02-09T01:13:12.558Z,1007.70
2023-02-09T01:14:12.593Z,1007.80
2023-02-09T01:15:12.550Z,1007.72
2023-02-09T01:16:12.541Z,1007.71
2023-02-09T01:17:12.546Z,1007.80
2023-02-09T01:18:12.513Z,1007.72
2023-02-09T01:19:12.517Z,1007.79
2023-02-09T01:20:12.516Z,1007.69
2023-02-09T01:21:12.496Z,1007.65
2023-02-09T01:22:12.495Z,1007.72
2023-02-09T01:23:12.486Z,1007.71
2023-02-09T01:24:12.464Z,1007.68
2023-02-09T01:25:12.460Z,1007.68
2023-02-09T01:26:12.449Z,1007.65
2023-02-09T01:27:12.427Z,1007.64
2023-02-09T01:28:12.477Z,1007.69
2023-02-09T01:29:12.416Z,1007.57
2023-02-09T01:30:12.420Z,1007.59
2023-02-09T01:31:12.478Z,1007.59
2023-02-09T01:32:12.398Z,1007.61
2023-02-09T01:33:12.357Z,1007.62
2023-02-09T01:34:12.361Z,1007.61
2023-02-09T01:35:12.381Z,1007.60
2023-02-09T01:36:12.331Z,1007.65
2023-02-09T01:37:12.326Z,1007.59
2023-02-09T01:38:12.323Z,1007.64
2023-02-09T01:39:12.317Z,1007.58
2023-02-09T01:40:12.313Z,1007.54
2023-02-09T01:41:12.312Z,1007.57
2023-02-09T01:42:12.268Z,1007.58
2023-02-09T01:43:12.263Z,1007.53
2023-02-09T01:44:12.267Z,1007.59
2023-02-09T01:45:12.281Z,1007.54
2023-02-09T01:46:12.283Z,1007.60
2023-02-09T01:47:13.231Z,1007.66
2023-02-09T01:48:12.215Z,1007.54
2023-02-09T01:49:12.229Z,1007.61
2023-02-09T01:50:12.233Z,1007.57
2023-02-09T01:51:12.189Z,1007.57
2023-02-09T01:52:12.190Z,1007.64
2023-02-09T01:53:12.175Z,1007.56
2023-02-09T01:54:12.171Z,1007.54
2023-02-09T01:55:12.152Z,1007.52
2023-02-09T01:56:12.154Z,1007.61
2023-02-09T01:57:12.162Z,1007.53
2023-02-09T01:58:12.113Z,1007.58
2023-02-09T01:59:12.121Z,1007.53
2023-02-09T02:00:12.124Z,1007.48
2023-02-09T02:01:12.114Z,1007.41
2023-02-09T02:02:12.103Z,1007.40
2023-02-09T02:03:12.097Z,1007.44
2023-02-09T02:04:12.064Z,1007.40
2023-02-09T02:05:12.061Z,1007.41
2023-02-09T02:06:12.049Z,1007.36
2023-02-09T02:07:12.043Z,1007.41
2023-02-09T02:08:12.049Z,1007.45
2023-02-09T02:09:12.023Z,1007.39
2023-02-09T02:10:11.999Z,1007.39
2023-02-09T02:11:12.020Z,1007.42
2023-02-09T02:12:11.982Z,1007.32
2023-02-09T02:13:11.976Z,1007.36
2023-02-09T02:14:11.972Z,1007.39
2023-02-09T02:15:11.953Z,1007.35
2023-02-09T02:16:11.981Z,1007.30
2023-02-09T02:17:11.940Z,1007.34
2023-02-09T02:18:11.932Z,1007.31
2023-02-09T02:19:11.917Z,1007.31
2023-02-09T02:20:11.900Z,1007.34
2023-02-09T02:21:11.888Z,1007.27
2023-02-09T02:22:11.898Z,1007.30
2023-02-09T02:23:11.888Z,1007.34
2023-02-09T02:24:11.865Z,1007.31
2023-02-09T02:25:11.878Z,1007.29
2023-02-09T02:26:11.847Z,1007.22
2023-02-09T02:27:11.838Z,1007.33
2023-02-09T02:28:11.831Z,1007.32
2023-02-09T02:29:11.822Z,1007.27
2023-02-09T02:30:11.806Z,1007.26
2023-02-09T02:31:11.925Z,1007.22
2023-02-09T02:32:11.782Z,1007.23
2023-02-09T02:33:11.768Z,1007.21
2023-02-09T02:34:11.774Z,1007.26
2023-02-09T02:35:11.771Z,1007.26
2023-02-09T02:36:11.738Z,1007.27
2023-02-09T02:37:11.747Z,1007.18
2023-02-09T02:38:11.732Z,1007.16
2023-02-09T02:39:11.713Z,1007.18
2023-02-09T02:40:11.704Z,1007.17
2023-02-09T02:41:11.699Z,1007.22
2023-02-09T02:42:11.677Z,1007.12
2023-02-09T02:43:11.660Z,1007.12
2023-02-09T02:44:11.665Z,1007.09
2023-02-09T02:45:11.660Z,1007.06
2023-02-09T02:46:11.673Z,1007.11
2023-02-09T02:47:11.631Z,1007.04
2023-02-09T02:48:11.616Z,1007.05
2023-02-09T02:49:12.796Z,1007.08
2023-02-09T02:50:11.609Z,1007.07
2023-02-09T02:51:11.610Z,1007.01
2023-02-09T02:52:11.575Z,1007.08
2023-02-09T02:53:11.573Z,1006.98
2023-02-09T02:54:11.575Z,1006.96
2023-02-09T02:55:11.566Z,1006.88
2023-02-09T02:56:11.550Z,1006.90
2023-02-09T02:57:11.523Z,1006.90
2023-02-09T02:58:11.527Z,1006.87
2023-02-09T02:59:11.524Z,1006.92
2023-02-09T03:00:11.522Z,1006.93
2023-02-09T03:01:11.519Z,1006.91
2023-02-09T03:02:11.487Z,1006.95
2023-02-09T03:03:11.462Z,1006.95
2023-02-09T03:04:11.487Z,1007.00
2023-02-09T03:05:11.498Z,1006.98
2023-02-09T03:06:11.437Z,1006.90
2023-02-09T03:07:11.429Z,1006.86
2023-02-09T03:08:11.454Z,1006.86
2023-02-09T03:09:11.433Z,1006.85
2023-02-09T03:10:11.399Z,1006.76
2023-02-09T03:11:11.415Z,1006.80
2023-02-09T03:12:11.389Z,1006.77
2023-02-09T03:13:11.375Z,1006.72
2023-02-09T03:14:11.383Z,1006.72
2023-02-09T03:15:11.349Z,1006.72
2023-02-09T03:16:12.407Z,1006.73
2023-02-09T03:17:11.338Z,1006.66
2023-02-09T03:18:11.337Z,1006.66
2023-02-09T03:19:11.330Z,1006.68
2023-02-09T03:20:11.316Z,1006.70
2023-02-09T03:21:11.298Z,1006.68
2023-02-09T03:22:11.292Z,1006.76
2023-02-09T03:23:11.279Z,1006.70
2023-02-09T03:24:11.292Z,1006.73
2023-02-09T03:25:11.268Z,1006.78
2023-02-09T03:26:11.257Z,1006.77
2023-02-09T03:27:11.238Z,1006.80
2023-02-09T03:28:11.264Z,1006.80
2023-02-09T03:29:11.230Z,1006.77
2023-02-09T03:30:11.205Z,1006.77
2023-02-09T03:31:11.285Z,1006.78
2023-02-09T03:32:11.199Z,1006.79
2023-02-09T03:33:11.173Z,1006.89
2023-02-09T03:34:11.181Z,1006.91
2023-02-09T03:35:11.168Z,1006.88
2023-02-09T03:36:11.141Z,1006.89
2023-02-09T03:37:11.133Z,1006.94
2023-02-09T03:38:11.177Z,1006.89
2023-02-09T03:39:11.157Z,1006.92
2023-02-09T03:40:11.097Z,1006.89
2023-02-09T03:41:11.113Z,1006.89
2023-02-09T03:42:11.091Z,1006.89
2023-02-09T03:43:11.109Z,1006.81
2023-02-09T03:44:11.067Z,1006.77
2023-02-09T03:45:11.044Z,1006.84
2023-02-09T03:46:11.057Z,1006.85
2023-02-09T03:47:11.034Z,1006.90
2023-02-09T03:48:11.037Z,1006.81
2023-02-09T03:49:11.012Z,1006.80
2023-02-09T03:50:11.003Z,1006.78
2023-02-09T03:51:10.987Z,1006.73
2023-02-09T03:52:11.003Z,1006.76
2023-02-09T03:53:10.991Z,1006.76
2023-02-09T03:54:10.969Z,1006.74
2023-02-09T03:55:10.956Z,1006.73
2023-02-09T03:56:10.961Z,1006.75
2023-02-09T03:57:10.965Z,1006.72
2023-02-09T03:58:10.934Z,1006.68
2023-02-09T03:59:10.925Z,1006.75
2023-02-09T04:00:10.910Z,1006.78
2023-02-09T04:01:10.948Z,1006.71
2023-02-09T04:02:10.921Z,1006.76
2023-02-09T04:03:10.881Z,1006.77
2023-02-09T04:04:10.873Z,1006.72
2023-02-09T04:05:13.658Z,1006.73
2023-02-09T04:06:10.843Z,1006.71
2023-02-09T04:07:10.834Z,1006.68
2023-02-09T04:08:10.847Z,1006.71
2023-02-09T04:09:10.821Z,1006.70
2023-02-09T04:10:10.822Z,1006.66
2023-02-09T04:11:10.802Z,1006.67
2023-02-09T04:12:10.784Z,1006.64
2023-02-09T04:13:10.790Z,1006.60
2023-02-09T04:14:10.783Z,1006.58
2023-02-09T04:15:10.769Z,1006.68
2023-02-09T04:16:10.816Z,1006.65
2023-02-09T04:17:10.743Z,1006.60
2023-02-09T04:18:10.753Z,1006.71
2023-02-09T04:19:10.720Z,1006.64
2023-02-09T04:20:10.723Z,1006.67
2023-02-09T04:21:10.703Z,1006.70
2023-02-09T04:22:10.708Z,1006.74
2023-02-09T04:23:10.679Z,1006.74
2023-02-09T04:24:10.672Z,1006.78
2023-02-09T04:25:10.710Z,1006.75
2023-02-09T04:26:10.651Z,1006.73
2023-02-09T04:27:10.642Z,1006.68
2023-02-09T04:28:10.732Z,1006.75
2023-02-09T04:29:10.634Z,1006.68
2023-02-09T04:30:10.612Z,1006.67
2023-02-09T04:31:10.888Z,1006.67
2023-02-09T04:32:11.609Z,1006.64
2023-02-09T04:33:10.576Z,1006.66
2023-02-09T04:34:10.602Z,1006.65
2023-02-09T04:35:10.559Z,1006.68
2023-02-09T04:36:10.570Z,1006.62
2023-02-09T04:37:10.571Z,1006.76
2023-02-09T04:38:10.525Z,1006.71
2023-02-09T04:39:10.532Z,1006.78
2023-02-09T04:40:10.543Z,1006.70
2023-02-09T04:41:10.535Z,1006.64
2023-02-09T04:42:10.511Z,1006.77
2023-02-09T04:43:10.491Z,1006.77
2023-02-09T04:44:10.492Z,1006.72
2023-02-09T04:45:10.469Z,1006.76
2023-02-09T04:46:10.530Z,1006.73
2023-02-09T04:47:10.437Z,1006.74
2023-02-09T04:48:10.456Z,1006.68
2023-02-09T04:49:10.447Z,1006.75
2023-02-09T04:50:10.417Z,1006.64
2023-02-09T04:51:10.411Z,1006.65
2023-02-09T04:52:10.412Z,1006.69
2023-02-09T04:53:10.384Z,1006.66
2023-02-09T04:54:10.393Z,1006.68
2023-02-09T04:55:10.391Z,1006.62
2023-02-09T04:56:10.356Z,1006.71
2023-02-09T04:57:10.359Z,1006.65
2023-02-09T04:58:10.349Z,1006.64
2023-02-09T04:59:10.319Z,1006.64
2023-02-09T05:00:10.335Z,1006.65
2023-02-09T05:01:10.391Z,1006.66
2023-02-09T05:02:10.293Z,1006.69
2023-02-09T05:03:10.327Z,1006.65
2023-02-09T05:04:10.319Z,1006.68
2023-02-09T05:05:10.274Z,1006.64
2023-02-09T05:06:10.258Z,1006.71
2023-02-09T05:07:10.278Z,1006.67
2023-02-09T05:08:10.238Z,1006.65
2023-02-09T05:09:10.226Z,1006.60
2023-02-09T05:10:10.275Z,1006.69
2023-02-09T05:11:10.242Z,1006.58
2023-02-09T05:12:10.208Z,1006.58
2023-02-09T05:13:10.201Z,1006.53
2023-02-09T05:14:10.190Z,1006.67
2023-02-09T05:15:10.182Z,1006.62
2023-02-09T05:16:10.232Z,1006.60
2023-02-09T05:17:10.137Z,1006.57
2023-02-09T05:18:10.146Z,1006.58
2023-02-09T05:19:10.149Z,1006.56
2023-02-09T05:20:10.135Z,1006.58
2023-02-09T05:21:10.130Z,1006.58
2023-02-09T05:22:10.126Z,1006.49
2023-02-09T05:23:10.085Z,1006.49
2023-02-09T05:24:10.082Z,1006.51
2023-02-09T05:25:10.084Z,1006.44
2023-02-09T05:26:10.072Z,1006.44
2023-02-09T05:27:10.043Z,1006.47
2023-02-09T05:28:10.099Z,1006.51
2023-02-09T05:29:10.056Z,1006.42
2023-02-09T05:30:10.029Z,1006.48
2023-02-09T05:31:10.131Z,1006.45
2023-02-09T05:32:10.009Z,1006.44
2023-02-09T05:33:10.010Z,1006.44
2023-02-09T05:34:09.992Z,1006.38
2023-02-09T05:35:09.972Z,1006.41
2023-02-09T05:36:10.027Z,1006.40
2023-02-09T05:37:09.945Z,1006.37
2023-02-09T05:38:09.952Z,1006.41
2023-02-09T05:39:09.929Z,1006.34
2023-02-09T05:40:09.932Z,1006.32
2023-02-09T05:41:09.917Z,1006.33
2023-02-09T05:42:09.894Z,1006.40
2023-02-09T05:43:09.884Z,1006.42
2023-02-09T05:44:09.888Z,1006.39
2023-02-09T05:45:09.887Z,1006.42
2023-02-09T05:46:09.915Z,1006.49
2023-02-09T05:47:09.842Z,1006.47
2023-02-09T05:48:09.857Z,1006.45
2023-02-09T05:49:09.842Z,1006.40
2023-02-09T05:50:09.810Z,1006.43
2023-02-09T05:51:09.796Z,1006.37
2023-02-09T05:52:09.825Z,1006.36
2023-02-09T05:53:09.791Z,1006.33
2023-02-09T05:54:09.793Z,1006.40
2023-02-09T05:55:09.797Z,1006.36
2023-02-09T05:56:09.762Z,1006.37
2023-02-09T05:57:09.739Z,1006.36
2023-02-09T05:58:09.746Z,1006.42
2023-02-09T05:59:09.724Z,1006.43
2023-02-09T06:00:09.721Z,1006.43
2023-02-09T06:01:09.696Z,1006.42
2023-02-09T06:02:09.723Z,1006.37
2023-02-09T06:03:10.721Z,1006.49
2023-02-09T06:04:09.688Z,1006.41
2023-02-09T06:05:09.675Z,1006.45
2023-02-09T06:06:09.653Z,1006.44
2023-02-09T06:07:11.868Z,1006.45
2023-02-09T06:08:10.646Z,1006.43
2023-02-09T06:09:09.623Z,1006.42
2023-02-09T06:10:09.606Z,1006.41
2023-02-09T06:11:09.613Z,1006.45
2023-02-09T06:12:09.593Z,1006.50
2023-02-09T06:13:09.594Z,1006.48
2023-02-09T06:14:09.568Z,1006.50
2023-02-09T06:15:09.561Z,1006.57
2023-02-09T06:16:09.596Z,1006.53
2023-02-09T06:17:09.540Z,1006.56
2023-02-09T06:18:09.542Z,1006.51
2023-02-09T06:19:09.528Z,1006.60
2023-02-09T06:20:09.513Z,1006.56
2023-02-09T06:21:09.510Z,1006.52
2023-02-09T06:22:09.494Z,1006.60
2023-02-09T06:23:09.484Z,1006.67
2023-02-09T06:24:09.470Z,1006.70
2023-02-09T06:25:09.458Z,1006.64
2023-02-09T06:26:09.454Z,1006.72
2023-02-09T06:27:09.438Z,1006.71
2023-02-09T06:28:09.464Z,1006.70
2023-02-09T06:29:09.451Z,1006.69
2023-02-09T06:30:09.423Z,1006.72
2023-02-09T06:31:09.531Z,1006.69
2023-02-09T06:32:41.353Z,1006.71
2023-02-09T06:33:09.365Z,1006.72
2023-02-09T06:34:09.388Z,1006.66
2023-02-09T06:35:09.373Z,1006.72
2023-02-09T06:36:09.358Z,1006.69
2023-02-09T06:37:09.371Z,1006.67
2023-02-09T06:38:09.361Z,1006.73
2023-02-09T06:39:09.327Z,1006.72
2023-02-09T06:40:09.318Z,1006.74
2023-02-09T06:41:09.354Z,1006.75
2023-02-09T06:42:09.276Z,1006.85
2023-02-09T06:43:09.303Z,1006.82
2023-02-09T06:44:09.291Z,1006.82
2023-02-09T06:45:09.248Z,1006.86
2023-02-09T06:46:09.297Z,1006.83
2023-02-09T06:47:09.268Z,1006.81
2023-02-09T06:48:09.261Z,1006.91
2023-02-09T06:49:09.218Z,1006.86
2023-02-09T06:50:09.213Z,1006.89
2023-02-09T06:51:09.236Z,1006.97
2023-02-09T06:52:09.211Z,1006.93
2023-02-09T06:53:09.173Z,1006.99
2023-02-09T06:54:09.187Z,1006.95
2023-02-09T06:55:09.189Z,1007.05
2023-02-09T06:56:09.191Z,1006.96
2023-02-09T06:57:09.177Z,1007.00
2023-02-09T06:58:09.172Z,1007.04
2023-02-09T06:59:09.119Z,1006.94
2023-02-09T07:00:09.126Z,1007.01
2023-02-09T07:01:09.233Z,1006.89
2023-02-09T07:02:09.115Z,1006.90
2023-02-09T07:03:09.067Z,1006.97
2023-02-09T07:04:09.154Z,1006.86
2023-02-09T07:05:09.087Z,1006.89
2023-02-09T07:06:09.059Z,1006.86
2023-02-09T07:07:09.066Z,1006.89
2023-02-09T07:08:09.076Z,1006.90
2023-02-09T07:09:09.045Z,1006.93
2023-02-09T07:10:09.015Z,1006.97
2023-02-09T07:11:09.062Z,1006.90
2023-02-09T07:12:09.004Z,1006.89
2023-02-09T07:13:08.982Z,1006.85
2023-02-09T07:14:09.019Z,1006.92
2023-02-09T07:15:08.969Z,1006.86
2023-02-09T07:16:09.014Z,1006.90
2023-02-09T07:17:08.967Z,1006.93
2023-02-09T07:18:08.946Z,1006.98
2023-02-09T07:19:08.923Z,1006.95
2023-02-09T07:20:08.934Z,1006.93
2023-02-09T07:21:08.936Z,1006.98
2023-02-09T07:22:08.905Z,1006.95
2023-02-09T07:23:08.888Z,1006.96
2023-02-09T07:24:08.903Z,1006.96
2023-02-09T07:25:08.898Z,1007.02
2023-02-09T07:26:08.855Z,1006.98
2023-02-09T07:27:08.826Z,1006.89
2023-02-09T07:28:08.858Z,1006.94
2023-02-09T07:29:08.865Z,1006.93
2023-02-09T07:30:08.803Z,1006.90
2023-02-09T07:31:08.932Z,1006.88
2023-02-09T07:32:08.880Z,1006.96
2023-02-09T07:33:08.788Z,1006.83
2023-02-09T07:34:08.786Z,1006.85
2023-02-09T07:35:08.781Z,1006.88
2023-02-09T07:36:08.759Z,1006.83
2023-02-09T07:37:08.737Z,1006.78
2023-02-09T07:38:08.745Z,1006.81
2023-02-09T07:39:08.732Z,1006.84
2023-02-09T07:40:08.707Z,1006.74
2023-02-09T07:41:08.719Z,1006.80
2023-02-09T07:42:08.695Z,1006.77
2023-02-09T07:43:08.682Z,1006.79
2023-02-09T07:44:08.681Z,1006.75
2023-02-09T07:45:10.107Z,1006.80
2023-02-09T07:46:09.653Z,1006.78
2023-02-09T07:47:08.669Z,1006.73
2023-02-09T07:48:08.660Z,1006.74
2023-02-09T07:49:08.615Z,1006.76
2023-02-09T07:50:08.643Z,1006.70
2023-02-09T07:51:08.638Z,1006.73
2023-02-09T07:52:08.597Z,1006.68
2023-02-09T07:53:08.574Z,1006.71
2023-02-09T07:54:08.601Z,1006.72
2023-02-09T07:55:08.573Z,1006.75
2023-02-09T07:56:08.572Z,1006.72
2023-02-09T07:57:08.567Z,1006.80
2023-02-09T07:58:08.528Z,1006.73
2023-02-09T07:59:08.538Z,1006.74
2023-02-09T08:00:08.513Z,1006.71
2023-02-09T08:01:08.492Z,1006.77
2023-02-09T08:02:08.657Z,1006.78
2023-02-09T08:03:08.470Z,1006.82
2023-02-09T08:04:08.492Z,1006.81
2023-02-09T08:05:08.557Z,1006.83
2023-02-09T08:06:08.454Z,1006.79
2023-02-09T08:07:08.443Z,1006.85
2023-02-09T08:08:08.455Z,1006.87
2023-02-09T08:09:08.468Z,1006.79
2023-02-09T08:10:08.435Z,1006.73
2023-02-09T08:11:08.431Z,1006.70
2023-02-09T08:12:08.489Z,1006.78
2023-02-09T08:13:08.382Z,1006.70
2023-02-09T08:14:08.389Z,1006.66
2023-02-09T08:15:08.402Z,1006.68
2023-02-09T08:16:08.412Z,1006.65
2023-02-09T08:17:08.353Z,1006.59
2023-02-09T08:18:08.364Z,1006.60
2023-02-09T08:19:08.318Z,1006.59
2023-02-09T08:20:08.315Z,1006.61
2023-02-09T08:21:08.353Z,1006.61
2023-02-09T08:22:08.306Z,1006.60
2023-02-09T08:23:08.286Z,1006.63
2023-02-09T08:24:08.279Z,1006.52
2023-02-09T08:25:08.324Z,1006.45
2023-02-09T08:26:08.240Z,1006.48
2023-02-09T08:27:08.274Z,1006.37
2023-02-09T08:28:08.277Z,1006.34
2023-02-09T08:29:08.216Z,1006.28
2023-02-09T08:30:08.217Z,1006.35
2023-02-09T08:31:08.296Z,1006.36
2023-02-09T08:32:08.337Z,1006.43
2023-02-09T08:33:08.210Z,1006.37
2023-02-09T08:34:08.197Z,1006.37
2023-02-09T08:35:08.177Z,1006.38
2023-02-09T08:36:08.155Z,1006.52
2023-02-09T08:37:08.215Z,1006.44
2023-02-09T08:38:08.141Z,1006.52
2023-02-09T08:39:08.109Z,1006.54
2023-02-09T08:40:08.100Z,1006.52
2023-02-09T08:41:08.132Z,1006.48
2023-02-09T08:42:08.090Z,1006.51
2023-02-09T08:43:08.096Z,1006.55
2023-02-09T08:44:08.087Z,1006.57
2023-02-09T08:45:08.077Z,1006.59
2023-02-09T08:46:08.153Z,1006.57
2023-02-09T08:47:08.095Z,1006.60
2023-02-09T08:48:08.061Z,1006.52
2023-02-09T08:49:08.031Z,1006.56
2023-02-09T08:50:08.024Z,1006.54
2023-02-09T08:51:07.978Z,1006.59
2023-02-09T08:52:07.983Z,1006.52
2023-02-09T08:53:08.019Z,1006.50
2023-02-09T08:54:07.970Z,1006.50
2023-02-09T08:55:07.950Z,1006.55
2023-02-09T08:56:07.945Z,1006.59
2023-02-09T08:57:07.973Z,1006.56
2023-02-09T08:58:07.947Z,1006.58
2023-02-09T08:59:07.920Z,1006.57
2023-02-09T09:00:07.910Z,1006.52
2023-02-09T09:01:08.009Z,1006.50
2023-02-09T09:02:07.879Z,1006.46
2023-02-09T09:03:07.848Z,1006.49
2023-02-09T09:04:08.008Z,1006.50
2023-02-09T09:05:07.872Z,1006.55
2023-02-09T09:06:07.848Z,1006.51
2023-02-09T09:07:07.857Z,1006.55
2023-02-09T09:08:08.623Z,1006.57
2023-02-09T09:09:07.808Z,1006.54
2023-02-09T09:10:07.784Z,1006.55
2023-02-09T09:11:07.792Z,1006.49
2023-02-09T09:12:07.787Z,1006.45
2023-02-09T09:13:07.778Z,1006.46
2023-02-09T09:14:07.780Z,1006.51
2023-02-09T09:15:07.719Z,1006.54
2023-02-09T09:16:07.777Z,1006.55
2023-02-09T09:17:07.799Z,1006.52
2023-02-09T09:18:07.739Z,1006.61
2023-02-09T09:19:07.696Z,1006.56
2023-02-09T09:20:07.708Z,1006.51
2023-02-09T09:21:07.730Z,1006.46
2023-02-09T09:22:07.669Z,1006.58
2023-02-09T09:23:07.669Z,1006.51
2023-02-09T09:24:08.666Z,1006.54
2023-02-09T09:25:07.639Z,1006.60
2023-02-09T09:26:07.620Z,1006.46
2023-02-09T09:27:07.637Z,1006.49
2023-02-09T09:28:07.648Z,1006.41
2023-02-09T09:29:07.583Z,1006.42
2023-02-09T09:30:07.587Z,1006.38
2023-02-09T09:31:07.671Z,1006.43
2023-02-09T09:32:07.611Z,1006.36
2023-02-09T09:33:07.607Z,1006.33
2023-02-09T09:34:07.552Z,1006.30
2023-02-09T09:35:07.620Z,1006.25
2023-02-09T09:36:07.538Z,1006.33
2023-02-09T09:37:07.508Z,1006.32
2023-02-09T09:38:07.530Z,1006.37
2023-02-09T09:39:07.495Z,1006.28
2023-02-09T09:40:07.515Z,1006.28
2023-02-09T09:41:07.486Z,1006.23
2023-02-09T09:42:07.486Z,1006.19
2023-02-09T09:43:07.448Z,1006.09
2023-02-09T09:44:07.476Z,1006.10
2023-02-09T09:45:07.447Z,1006.12
2023-02-09T09:46:07.496Z,1006.05
2023-02-09T09:47:07.433Z,1006.06
2023-02-09T09:48:07.403Z,1006.10
2023-02-09T09:49:07.364Z,1006.07
2023-02-09T09:50:07.368Z,1006.12
2023-02-09T09:51:07.397Z,1006.14
2023-02-09T09:52:07.356Z,1006.18
2023-02-09T09:53:07.342Z,1006.21
2023-02-09T09:54:07.352Z,1006.27
2023-02-09T09:55:07.325Z,1006.29
2023-02-09T09:56:07.324Z,1006.22
2023-02-09T09:57:07.337Z,1006.27
2023-02-09T09:58:07.297Z,1006.36
2023-02-09T09:59:07.273Z,1006.35
2023-02-09T10:00:07.268Z,1006.39
2023-02-09T10:01:07.330Z,1006.30
2023-02-09T10:02:07.263Z,1006.30
2023-02-09T10:03:07.230Z,1006.30
2023-02-09T10:04:07.248Z,1006.36
2023-02-09T10:05:07.244Z,1006.39
2023-02-09T10:06:07.207Z,1006.38
2023-02-09T10:07:07.193Z,1006.36
2023-02-09T10:08:07.182Z,1006.43
2023-02-09T10:09:07.201Z,1006.35
2023-02-09T10:10:07.148Z,1006.34
2023-02-09T10:11:07.166Z,1006.32
2023-02-09T10:12:07.168Z,1006.38
2023-02-09T10:13:07.122Z,1006.34
2023-02-09T10:14:07.117Z,1006.32
2023-02-09T10:15:07.139Z,1006.32
2023-02-09T10:16:07.134Z,1006.29
2023-02-09T10:17:07.137Z,1006.34
2023-02-09T10:18:07.107Z,1006.35
2023-02-09T10:19:07.070Z,1006.34
2023-02-09T10:20:07.087Z,1006.43
2023-02-09T10:21:07.083Z,1006.41
2023-02-09T10:22:07.046Z,1006.44
2023-02-09T10:23:07.041Z,1006.42
2023-02-09T10:24:07.028Z,1006.42
2023-02-09T10:25:07.022Z,1006.43
2023-02-09T10:26:07.026Z,1006.39
2023-02-09T10:27:07.007Z,1006.33
2023-02-09T10:28:06.987Z,1006.22
2023-02-09T10:29:07.999Z,1006.25
2023-02-09T10:30:06.959Z,1006.24
2023-02-09T10:31:07.110Z,1006.24
2023-02-09T10:32:06.993Z,1006.21
2023-02-09T10:33:06.919Z,1006.30
2023-02-09T10:34:06.942Z,1006.19
2023-02-09T10:35:06.914Z,1006.17
2023-02-09T10:36:06.897Z,1006.20
2023-02-09T10:37:06.865Z,1006.17
2023-02-09T10:38:06.911Z,1006.13
2023-02-09T10:39:06.896Z,1006.17
2023-02-09T10:40:06.863Z,1006.17
2023-02-09T10:41:06.851Z,1006.10
2023-02-09T10:42:06.851Z,1006.13
2023-02-09T10:43:06.809Z,1006.09
2023-02-09T10:44:06.839Z,1006.13
2023-02-09T10:45:06.818Z,1006.15
2023-02-09T10:46:06.840Z,1006.19
2023-02-09T10:47:06.756Z,1006.23
2023-02-09T10:48:06.781Z,1006.21
2023-02-09T10:49:06.779Z,1006.17
2023-02-09T10:50:06.731Z,1006.25
2023-02-09T10:51:06.713Z,1006.20
2023-02-09T10:52:06.738Z,1006.23
2023-02-09T10:53:06.715Z,1006.19
2023-02-09T10:54:06.761Z,1006.22
2023-02-09T10:55:06.826Z,1006.13
2023-02-09T10:56:06.711Z,1006.14
2023-02-09T10:57:06.656Z,1006.14
2023-02-09T10:58:06.682Z,1006.12
2023-02-09T10:59:06.636Z,1006.08
2023-02-09T11:00:06.629Z,1006.13
2023-02-09T11:01:06.670Z,1006.08
2023-02-09T11:02:06.644Z,1006.11
2023-02-09T11:03:06.627Z,1006.06
2023-02-09T11:04:06.658Z,1005.98
2023-02-09T11:05:06.611Z,1005.95
2023-02-09T11:06:06.618Z,1005.87
2023-02-09T11:07:06.576Z,1005.88
2023-02-09T11:08:06.567Z,1005.80
2023-02-09T11:09:06.567Z,1005.79
2023-02-09T11:10:12.448Z,1005.81
2023-02-09T11:11:07.521Z,1005.94
2023-02-09T11:12:06.515Z,1005.92
2023-02-09T11:13:06.530Z,1006.01
2023-02-09T11:14:06.498Z,1006.01
2023-02-09T11:15:06.544Z,1006.08
2023-02-09T11:16:06.560Z,1006.05
2023-02-09T11:17:07.481Z,1006.02
2023-02-09T11:18:06.498Z,1006.06
2023-02-09T11:19:07.747Z,1006.09
2023-02-09T11:20:07.448Z,1006.12
2023-02-09T11:21:06.432Z,1006.11
2023-02-09T11:22:06.433Z,1006.07
2023-02-09T11:23:06.414Z,1006.07
2023-02-09T11:24:06.417Z,1006.05
2023-02-09T11:25:06.406Z,1006.12
2023-02-09T11:26:06.386Z,1006.12
2023-02-09T11:27:06.368Z,1006.12
2023-02-09T11:28:06.391Z,1006.05
2023-02-09T11:29:06.380Z,1006.05
2023-02-09T11:30:06.329Z,1006.10
2023-02-09T11:31:06.393Z,1006.09
2023-02-09T11:32:06.371Z,1006.13
2023-02-09T11:33:07.311Z,1006.07
2023-02-09T11:34:06.360Z,1006.04
2023-02-09T11:35:06.300Z,1006.05
2023-02-09T11:36:06.283Z,1006.04
2023-02-09T11:37:06.259Z,1005.98
2023-02-09T11:38:06.264Z,1005.99
2023-02-09T11:39:06.273Z,1006.01
2023-02-09T11:40:06.250Z,1006.07
2023-02-09T11:41:06.211Z,1006.01
2023-02-09T11:42:06.253Z,1006.08
2023-02-09T11:43:06.227Z,1006.07
2023-02-09T11:44:06.207Z,1005.93
2023-02-09T11:45:08.804Z,1005.99
2023-02-09T11:46:07.251Z,1005.92
2023-02-09T11:47:06.149Z,1005.95
2023-02-09T11:48:06.166Z,1005.95
2023-02-09T11:49:06.209Z,1005.89
2023-02-09T11:50:06.150Z,1005.87
2023-02-09T11:51:06.150Z,1005.79
2023-02-09T11:52:06.124Z,1005.78
2023-02-09T11:53:06.182Z,1005.81
2023-02-09T11:54:06.107Z,1005.73
2023-02-09T11:55:06.114Z,1005.81
2023-02-09T11:56:06.097Z,1005.76
2023-02-09T11:57:06.055Z,1005.75
2023-02-09T11:58:06.076Z,1005.70
2023-02-09T11:59:06.070Z,1005.60
2023-02-09T12:00:06.046Z,1005.62
2023-02-09T12:01:15.162Z,1005.65
2023-02-09T12:02:08.039Z,1005.66
2023-02-09T12:03:06.068Z,1005.60
2023-02-09T12:04:06.017Z,1005.61
2023-02-09T12:05:06.023Z,1005.50